createdAt,value
2022-09-28T00:01:23.836Z,82.35
2022-09-28T00:05:35.597Z,82.02
2022-09-28T00:09:47.078Z,82.10
2022-09-28T00:14:03.450Z,82.06
2022-09-28T00:18:14.997Z,82.62
2022-09-28T00:22:26.612Z,82.25
2022-09-28T00:26:41.049Z,81.91
2022-09-28T00:30:55.660Z,81.86
2022-09-28T00:35:07.489Z,81.92
2022-09-28T00:39:19.257Z,81.85
2022-09-28T00:43:30.819Z,82.07
2022-09-28T00:47:42.259Z,82.27
2022-09-28T00:51:54.572Z,82.20
2022-09-28T00:56:12.014Z,82.65
2022-09-28T01:00:23.990Z,82.99
2022-09-28T01:04:36.621Z,83.03
2022-09-28T01:08:51.675Z,83.31
2022-09-28T01:13:03.651Z,83.25
2022-09-28T01:17:18.087Z,83.35
2022-09-28T01:22:18.324Z,83.42
2022-09-28T01:26:36.327Z,83.36
2022-09-28T01:31:09.702Z,83.07
2022-09-28T01:35:35.548Z,82.90
2022-09-28T01:39:50.062Z,82.70
2022-09-28T01:44:04.760Z,82.62
2022-09-28T01:48:55.238Z,82.40
2022-09-28T01:53:17.240Z,82.46
2022-09-28T01:57:44.851Z,82.31
2022-09-28T02:02:12.800Z,82.57
2022-09-28T02:06:38.211Z,82.54
2022-09-28T02:11:06.140Z,82.85
2022-09-28T02:15:27.916Z,82.74
2022-09-28T02:19:41.312Z,83.21
2022-09-28T02:23:59.441Z,83.41
2022-09-28T02:28:16.120Z,83.81
2022-09-28T02:32:30.786Z,83.98
2022-09-28T02:36:44.942Z,84.18
2022-09-28T02:41:22.111Z,84.34
2022-09-28T02:45:43.447Z,84.38
2022-09-28T02:50:43.168Z,84.25
2022-09-28T02:55:12.973Z,84.25
2022-09-28T02:59:33.340Z,84.42
2022-09-28T03:04:16.965Z,84.48
2022-09-28T03:08:49.000Z,84.39
2022-09-28T03:13:03.220Z,84.39
2022-09-28T03:17:14.934Z,84.33
2022-09-28T03:21:26.663Z,84.19
2022-09-28T03:25:38.215Z,84.49
2022-09-28T03:29:49.981Z,84.24
2022-09-28T03:34:01.943Z,84.27
2022-09-28T03:38:13.655Z,84.17
2022-09-28T03:42:27.379Z,84.41
2022-09-28T03:46:39.261Z,84.48
2022-09-28T03:50:59.173Z,84.49
2022-09-28T03:55:11.097Z,84.84
2022-09-28T03:59:23.777Z,84.40
2022-09-28T04:03:35.625Z,84.42
2022-09-28T04:07:47.255Z,84.51
2022-09-28T04:12:04.376Z,84.32
2022-09-28T04:16:18.563Z,84.53
2022-09-28T04:20:45.393Z,84.09
2022-09-28T04:24:58.078Z,84.22
2022-09-28T04:29:16.723Z,84.18
2022-09-28T04:33:33.520Z,83.95
2022-09-28T04:37:45.200Z,83.88
2022-09-28T04:41:56.809Z,83.59
2022-09-28T04:46:10.621Z,83.30
2022-09-28T04:50:28.412Z,83.48
2022-09-28T04:55:01.786Z,83.37
2022-09-28T04:59:13.602Z,83.52
2022-09-28T05:03:27.038Z,83.31
2022-09-28T05:08:02.097Z,83.47
2022-09-28T05:12:13.881Z,83.46
2022-09-28T05:16:26.760Z,83.54
2022-09-28T05:21:11.198Z,83.61
2022-09-28T05:25:23.265Z,83.90
2022-09-28T05:29:47.623Z,83.70
2022-09-28T05:34:18.040Z,83.85
2022-09-28T05:38:30.642Z,83.70
2022-09-28T05:42:42.370Z,83.89
2022-09-28T05:46:54.773Z,83.77
2022-09-28T05:51:07.630Z,83.53
2022-09-28T05:55:19.929Z,84.26
2022-09-28T05:59:31.600Z,84.07
2022-09-28T06:03:43.319Z,83.95
2022-09-28T06:07:57.336Z,84.29
2022-09-28T06:12:09.399Z,84.05
2022-09-28T06:16:28.189Z,84.63
2022-09-28T06:20:43.450Z,85.08
2022-09-28T06:25:02.034Z,85.77
2022-09-28T06:29:19.908Z,85.34
2022-09-28T06:33:31.933Z,84.31
2022-09-28T06:37:45.016Z,83.07
2022-09-28T06:41:57.045Z,82.08
2022-09-28T06:46:10.489Z,82.38
2022-09-28T06:50:40.550Z,82.22
2022-09-28T06:55:10.815Z,82.18
2022-09-28T06:59:27.590Z,82.25
2022-09-28T07:03:40.581Z,81.70
2022-09-28T07:08:11.348Z,80.72
2022-09-28T07:12:52.263Z,80.12
2022-09-28T07:17:18.771Z,79.66
2022-09-28T07:21:30.813Z,79.84
2022-09-28T07:25:47.949Z,80.05
2022-09-28T07:30:16.608Z,80.92
2022-09-28T07:34:48.601Z,81.21
2022-09-28T07:39:09.076Z,81.43
2022-09-28T07:43:21.801Z,82.00
2022-09-28T07:47:35.714Z,80.58
2022-09-28T07:52:06.177Z,76.26
2022-09-28T07:56:23.724Z,72.23
2022-09-28T08:01:11.909Z,66.11
2022-09-28T08:05:24.580Z,63.42
2022-09-28T08:09:36.426Z,57.48
2022-09-28T08:14:06.577Z,55.00
2022-09-28T08:18:36.971Z,53.40
2022-09-28T08:22:49.667Z,52.89
2022-09-28T08:27:01.345Z,52.16
2022-09-28T08:31:15.526Z,50.59
2022-09-28T08:35:57.775Z,49.09
2022-09-28T08:40:34.943Z,48.65
2022-09-28T08:45:08.037Z,45.29
2022-09-28T08:49:47.569Z,46.20
2022-09-28T08:54:46.082Z,44.54
2022-09-28T08:59:13.708Z,44.46
2022-09-28T09:03:35.758Z,43.64
2022-09-28T09:08:50.063Z,41.67
2022-09-28T09:13:19.172Z,41.38
2022-09-28T09:17:39.166Z,40.50
2022-09-28T09:22:28.266Z,40.16
2022-09-28T09:27:07.076Z,40.33
2022-09-28T09:31:40.796Z,39.50
2022-09-28T09:36:11.999Z,39.99
2022-09-28T09:41:04.334Z,40.34
2022-09-28T09:46:03.801Z,39.54
2022-09-28T09:50:30.182Z,38.86
2022-09-28T09:55:04.274Z,37.91
2022-09-28T09:59:41.439Z,36.24
2022-09-28T10:04:15.718Z,36.73
2022-09-28T10:08:28.985Z,37.83
2022-09-28T10:12:41.486Z,37.36
2022-09-28T10:16:56.686Z,38.37
2022-09-28T10:21:28.898Z,40.00
2022-09-28T10:25:46.560Z,41.30
2022-09-28T10:30:02.992Z,42.74
2022-09-28T10:34:17.485Z,42.29
2022-09-28T10:38:30.906Z,40.87
2022-09-28T10:42:59.335Z,39.31
2022-09-28T10:47:17.085Z,39.49
2022-09-28T10:51:56.578Z,40.95
2022-09-28T10:56:21.199Z,41.49
2022-09-28T11:00:41.366Z,42.76
2022-09-28T11:05:06.726Z,44.23
2022-09-28T11:09:38.891Z,43.68
2022-09-28T11:14:03.510Z,43.75
2022-09-28T11:18:31.433Z,42.42
2022-09-28T11:22:52.335Z,43.11
2022-09-28T11:27:06.066Z,44.08
2022-09-28T11:31:28.093Z,42.65
2022-09-28T11:35:56.963Z,40.35
2022-09-28T11:40:28.574Z,38.36
2022-09-28T11:44:46.437Z,37.61
2022-09-28T11:49:14.488Z,36.40
2022-09-28T11:54:14.173Z,36.92
2022-09-28T11:58:35.102Z,38.04
2022-09-28T12:03:00.571Z,38.99
2022-09-28T12:07:16.555Z,39.84
2022-09-28T12:11:36.380Z,40.09
2022-09-28T12:20:42.234Z,42.11
2022-09-28T12:24:57.609Z,43.09
2022-09-28T12:29:18.478Z,44.35
2022-09-28T12:33:30.125Z,44.70
2022-09-28T12:37:51.465Z,45.02
2022-09-28T12:42:44.276Z,44.47
2022-09-28T12:47:16.978Z,44.28
2022-09-28T12:51:28.485Z,43.85
2022-09-28T12:55:56.159Z,44.28
2022-09-28T13:00:18.639Z,44.86
2022-09-28T13:04:30.194Z,46.14
2022-09-28T13:08:55.204Z,46.39
2022-09-28T13:13:12.721Z,46.40
2022-09-28T13:17:46.031Z,46.56
2022-09-28T13:22:01.231Z,47.55
2022-09-28T13:26:15.652Z,47.83
2022-09-28T13:30:27.558Z,47.96
2022-09-28T13:34:39.701Z,49.29
2022-09-28T13:38:52.447Z,52.22
2022-09-28T13:43:28.531Z,55.03
2022-09-28T13:47:59.886Z,56.43
2022-09-28T13:52:45.576Z,59.84
2022-09-28T13:57:13.170Z,59.16
2022-09-28T14:01:40.954Z,59.08
2022-09-28T14:06:21.533Z,59.20
2022-09-28T14:10:46.747Z,59.29
2022-09-28T14:14:58.587Z,59.12
2022-09-28T14:19:20.897Z,60.01
2022-09-28T14:24:00.045Z,60.64
2022-09-28T14:28:23.993Z,60.79
2022-09-28T14:32:37.403Z,61.18
2022-09-28T14:37:07.905Z,61.03
2022-09-28T14:41:34.409Z,61.26
2022-09-28T14:45:46.043Z,61.23
2022-09-28T14:50:03.107Z,61.40
2022-09-28T14:54:19.877Z,61.60
2022-09-28T14:58:33.566Z,61.63
2022-09-28T15:02:52.314Z,61.79
2022-09-28T15:07:03.876Z,61.34
2022-09-28T15:11:23.593Z,61.59
2022-09-28T15:15:38.701Z,61.40
2022-09-28T15:20:12.155Z,61.49
2022-09-28T15:24:32.516Z,61.30
2022-09-28T15:28:45.218Z,61.63
2022-09-28T15:33:18.214Z,61.74
2022-09-28T15:37:40.262Z,62.01
2022-09-28T15:41:52.518Z,61.74
2022-09-28T15:46:07.706Z,61.97
2022-09-28T15:50:26.823Z,62.08
2022-09-28T15:54:44.210Z,62.04
2022-09-28T15:59:25.405Z,62.26
2022-09-28T16:03:37.460Z,62.02
2022-09-28T16:07:56.051Z,62.39
2022-09-28T16:12:11.419Z,62.68
2022-09-28T16:16:29.948Z,62.64
2022-09-28T16:20:42.528Z,62.86
2022-09-28T16:24:59.968Z,64.52
2022-09-28T16:29:28.320Z,64.35
2022-09-28T16:33:46.565Z,64.15
2022-09-28T16:38:10.820Z,64.10
2022-09-28T16:42:22.653Z,64.01
2022-09-28T16:46:37.576Z,64.43
2022-09-28T16:50:50.390Z,64.26
2022-09-28T16:59:48.604Z,64.88
2022-09-28T17:04:00.169Z,64.92
2022-09-28T17:08:17.606Z,65.14
2022-09-28T17:12:29.526Z,65.57
2022-09-28T17:21:16.223Z,65.94
2022-09-28T17:25:27.917Z,66.10
2022-09-28T17:29:39.705Z,66.37
2022-09-28T17:33:52.115Z,66.71
2022-09-28T17:38:03.669Z,67.20
2022-09-28T17:42:17.122Z,67.55
2022-09-28T17:46:38.665Z,68.06
2022-09-28T17:50:50.653Z,68.36
2022-09-28T17:55:02.214Z,68.32
2022-09-28T17:59:16.934Z,71.02
2022-09-28T18:03:28.522Z,70.90
2022-09-28T18:07:45.413Z,70.72
2022-09-28T18:12:00.920Z,70.34
2022-09-28T18:16:14.275Z,70.47
2022-09-28T18:20:25.927Z,70.80
2022-09-28T18:24:37.507Z,70.71
2022-09-28T18:28:49.040Z,70.40
2022-09-28T18:33:00.580Z,70.73
2022-09-28T18:37:12.111Z,70.69
2022-09-28T18:41:24.206Z,70.98
2022-09-28T18:45:36.191Z,70.97
2022-09-28T18:49:47.765Z,71.37
2022-09-28T18:54:06.560Z,71.40
2022-09-28T18:58:18.497Z,72.12
2022-09-28T19:02:30.095Z,72.37
2022-09-28T19:06:44.237Z,72.73
2022-09-28T19:11:10.582Z,72.82
2022-09-28T19:15:22.705Z,72.85
2022-09-28T19:19:34.200Z,72.70
2022-09-28T19:23:49.264Z,72.71
2022-09-28T19:28:01.561Z,72.96
2022-09-28T19:32:13.170Z,73.30
2022-09-28T19:36:28.319Z,73.08
2022-09-28T19:40:39.811Z,73.01
2022-09-28T19:44:51.327Z,73.25
2022-09-28T19:49:14.110Z,73.33
2022-09-28T19:53:27.257Z,73.48
2022-09-28T19:57:38.742Z,73.72
2022-09-28T20:01:52.923Z,73.82
2022-09-28T20:06:05.214Z,73.96
2022-09-28T20:10:16.763Z,74.08
2022-09-28T20:14:33.057Z,73.71
2022-09-28T20:18:50.276Z,74.31
2022-09-28T20:23:03.029Z,74.37
2022-09-28T20:27:14.490Z,74.26
2022-09-28T20:31:26.102Z,74.76
2022-09-28T20:35:40.338Z,74.93
2022-09-28T20:39:53.210Z,75.40
2022-09-28T20:44:06.494Z,74.90
2022-09-28T20:48:18.874Z,74.93
2022-09-28T20:52:30.402Z,75.20
2022-09-28T20:56:41.891Z,75.15
2022-09-28T21:01:01.377Z,75.18
2022-09-28T21:05:12.940Z,75.14
2022-09-28T21:09:24.374Z,75.40
2022-09-28T21:13:35.819Z,75.57
2022-09-28T21:17:47.318Z,75.58
2022-09-28T21:21:58.812Z,75.67
2022-09-28T21:26:16.216Z,75.61
2022-09-28T21:30:27.699Z,75.66
2022-09-28T21:34:39.216Z,75.80
2022-09-28T21:38:50.687Z,76.08
2022-09-28T21:43:02.217Z,76.02
2022-09-28T21:47:13.698Z,76.29
2022-09-28T21:51:25.347Z,76.21
2022-09-28T21:55:37.427Z,76.33
2022-09-28T21:59:48.906Z,76.65
2022-09-28T22:04:00.779Z,76.68
2022-09-28T22:08:12.415Z,76.58
2022-09-28T22:12:23.892Z,76.45
2022-09-28T22:16:35.590Z,76.61
2022-09-28T22:20:47.073Z,76.61
2022-09-28T22:24:58.639Z,76.83
2022-09-28T22:29:10.691Z,76.99
2022-09-28T22:33:22.865Z,76.70
2022-09-28T22:37:34.322Z,77.00
2022-09-28T22:41:45.993Z,76.93
2022-09-28T22:46:27.786Z,76.94
2022-09-28T22:50:46.928Z,77.18
2022-09-28T22:54:58.373Z,77.42
2022-09-28T22:59:11.525Z,77.18
2022-09-28T23:03:23.579Z,77.28
2022-09-28T23:07:35.030Z,77.62
2022-09-28T23:11:46.661Z,77.41
2022-09-28T23:16:00.323Z,77.22
2022-09-28T23:20:11.810Z,77.50
2022-09-28T23:24:23.455Z,77.72
2022-09-28T23:28:34.997Z,77.46
2022-09-28T23:32:46.541Z,77.83
2022-09-28T23:36:57.987Z,77.82
2022-09-28T23:41:10.055Z,77.92
2022-09-28T23:45:21.626Z,77.83
2022-09-28T23:49:33.130Z,77.85
2022-09-28T23:53:45.497Z,77.81
2022-09-28T23:57:58.585Z,77.88
